createdAt,value
2018-08-24T00:00:57.648Z,9.13
2018-08-24T00:03:27.671Z,8.60
2018-08-24T00:05:57.671Z,8.80
2018-08-24T00:08:27.911Z,8.97
2018-08-24T00:10:57.949Z,9.17
2018-08-24T00:13:27.994Z,8.67
2018-08-24T00:15:58.011Z,9.17
2018-08-24T00:18:27.988Z,9.10
2018-08-24T00:20:57.933Z,8.83
2018-08-24T00:23:27.799Z,9.00
2018-08-24T00:25:57.789Z,9.20
2018-08-24T00:28:27.760Z,9.00
2018-08-24T00:30:57.697Z,8.53
2018-08-24T00:33:27.667Z,8.97
2018-08-24T00:35:57.541Z,9.07
2018-08-24T00:38:27.441Z,8.80
2018-08-24T00:40:57.832Z,7.90
2018-08-24T00:43:28.144Z,8.70
2018-08-24T00:45:58.209Z,8.60
2018-08-24T00:48:28.165Z,9.13
2018-08-24T00:50:58.083Z,8.43
2018-08-24T00:53:28.092Z,8.30
2018-08-24T00:59:00.863Z,8.77
2018-08-24T01:01:30.846Z,8.40
2018-08-24T01:04:00.782Z,8.23
2018-08-24T01:06:30.705Z,7.87
2018-08-24T01:09:00.643Z,8.47
2018-08-24T01:11:35.561Z,8.03
2018-08-24T01:14:05.464Z,8.50
2018-08-24T01:16:40.535Z,8.60
2018-08-24T01:19:10.549Z,8.20
2018-08-24T01:21:40.541Z,8.00
2018-08-24T01:24:10.608Z,8.00
2018-08-24T01:26:40.607Z,8.40
2018-08-24T01:29:10.609Z,8.53
2018-08-24T01:31:40.760Z,8.57
2018-08-24T01:34:11.005Z,8.37
2018-08-24T01:36:41.289Z,8.13
2018-08-24T01:39:11.238Z,8.40
2018-08-24T01:41:41.264Z,8.17
2018-08-24T01:44:11.281Z,7.57
2018-08-24T01:46:41.294Z,8.40
2018-08-24T01:49:11.217Z,8.13
2018-08-24T01:51:41.216Z,8.07
2018-08-24T01:54:11.172Z,8.07
2018-08-24T01:56:41.087Z,7.47
2018-08-24T01:59:11.455Z,7.13
2018-08-24T02:01:41.340Z,7.37
2018-08-24T02:04:11.362Z,7.43
2018-08-24T02:06:41.388Z,7.23
2018-08-24T02:09:12.833Z,6.93
2018-08-24T02:11:42.940Z,7.03
2018-08-24T02:14:18.161Z,6.93
2018-08-24T02:16:48.134Z,6.93
2018-08-24T02:19:18.039Z,6.60
2018-08-24T02:21:53.215Z,6.33
2018-08-24T02:24:23.196Z,6.40
2018-08-24T02:26:53.146Z,6.30
2018-08-24T02:29:23.213Z,6.53
2018-08-24T02:31:53.174Z,7.27
2018-08-24T02:34:23.200Z,6.97
2018-08-24T02:36:53.162Z,6.57
2018-08-24T02:39:23.185Z,6.60
2018-08-24T02:41:53.173Z,6.60
2018-08-24T02:44:23.199Z,6.30
2018-08-24T02:46:53.246Z,6.80
2018-08-24T02:49:23.249Z,6.50
2018-08-24T02:51:53.136Z,6.97
2018-08-24T02:54:23.153Z,6.40
2018-08-24T02:56:53.153Z,6.80
2018-08-24T02:59:23.128Z,6.50
2018-08-24T03:01:54.026Z,6.73
2018-08-24T03:04:23.976Z,7.13
2018-08-24T03:06:53.971Z,7.07
2018-08-24T03:09:23.909Z,7.07
2018-08-24T03:11:53.870Z,7.10
2018-08-24T03:14:23.846Z,7.23
2018-08-24T03:16:58.975Z,6.97
2018-08-24T03:19:28.992Z,7.20
2018-08-24T03:21:58.963Z,7.57
2018-08-24T03:24:28.975Z,7.40
2018-08-24T03:26:59.078Z,7.30
2018-08-24T03:29:29.008Z,6.70
2018-08-24T03:31:59.020Z,7.83
2018-08-24T03:34:28.918Z,7.63
2018-08-24T03:36:58.856Z,7.57
2018-08-24T03:39:28.841Z,7.47
2018-08-24T03:41:58.814Z,7.53
2018-08-24T03:44:28.883Z,7.57
2018-08-24T03:46:58.785Z,7.30
2018-08-24T03:49:28.718Z,7.70
2018-08-24T03:51:59.570Z,7.00
2018-08-24T03:54:29.584Z,7.80
2018-08-24T03:57:00.189Z,6.90
2018-08-24T03:59:30.798Z,7.13
2018-08-24T04:02:01.225Z,7.83
2018-08-24T04:04:31.232Z,7.27
2018-08-24T04:07:01.356Z,7.50
2018-08-24T04:09:31.590Z,7.60
2018-08-24T04:12:17.869Z,7.40
2018-08-24T04:14:48.052Z,7.63
2018-08-24T04:17:23.074Z,8.17
2018-08-24T04:19:53.124Z,7.30
2018-08-24T04:22:23.230Z,7.37
2018-08-24T04:24:53.229Z,7.17
2018-08-24T04:27:24.265Z,7.53
2018-08-24T04:29:54.248Z,7.40
2018-08-24T04:32:24.238Z,7.93
2018-08-24T04:34:54.310Z,8.13
2018-08-24T04:37:24.182Z,8.23
2018-08-24T04:39:54.204Z,7.47
2018-08-24T04:42:24.083Z,7.47
2018-08-24T04:44:59.854Z,7.37
2018-08-24T04:47:29.869Z,7.43
2018-08-24T04:49:59.881Z,7.87
2018-08-24T04:52:29.968Z,7.83
2018-08-24T04:55:07.593Z,6.80
2018-08-24T05:00:51.314Z,7.40
2018-08-24T05:03:21.346Z,7.27
2018-08-24T05:05:51.422Z,7.53
2018-08-24T05:08:21.215Z,7.77
2018-08-24T05:10:51.138Z,7.13
2018-08-24T05:13:21.101Z,7.40
2018-08-24T05:15:51.162Z,7.53
2018-08-24T05:18:21.844Z,7.47
2018-08-24T05:20:51.860Z,7.57
2018-08-24T05:23:22.083Z,7.20
2018-08-24T05:25:52.175Z,7.77
2018-08-24T05:28:22.135Z,7.47
2018-08-24T05:30:52.202Z,7.10
2018-08-24T05:33:23.081Z,7.80
2018-08-24T05:35:52.987Z,8.70
2018-08-24T05:38:42.487Z,8.30
2018-08-24T05:41:12.667Z,8.13
2018-08-24T05:43:42.585Z,7.53
2018-08-24T05:46:12.518Z,8.07
2018-08-24T05:48:42.525Z,7.80
2018-08-24T05:51:12.857Z,8.13
2018-08-24T05:53:42.863Z,7.73
2018-08-24T05:56:12.809Z,7.63
2018-08-24T05:58:42.690Z,7.67
2018-08-24T06:01:12.711Z,7.80
2018-08-24T06:03:54.437Z,8.67
2018-08-24T06:06:24.358Z,7.93
2018-08-24T06:08:59.511Z,7.37
2018-08-24T06:11:29.648Z,8.10
2018-08-24T06:13:59.656Z,7.87
2018-08-24T06:16:29.654Z,7.00
2018-08-24T06:18:59.645Z,7.57
2018-08-24T06:21:30.654Z,6.83
2018-08-24T06:24:00.842Z,6.50
2018-08-24T06:26:30.809Z,6.60
2018-08-24T06:29:00.685Z,5.43
2018-08-24T06:31:30.605Z,6.47
2018-08-24T06:34:00.580Z,6.03
2018-08-24T06:36:30.627Z,6.23
2018-08-24T06:39:00.665Z,6.00
2018-08-24T06:41:30.996Z,6.20
2018-08-24T06:44:01.039Z,6.50
2018-08-24T06:46:30.959Z,4.77
2018-08-24T06:49:01.007Z,6.10
2018-08-24T06:51:31.090Z,5.97
2018-08-24T06:54:01.101Z,5.53
2018-08-24T06:56:31.162Z,6.10
2018-08-24T06:59:01.164Z,5.77
2018-08-24T07:01:31.064Z,5.40
2018-08-24T07:04:01.085Z,7.40
2018-08-24T07:06:31.084Z,6.57
2018-08-24T07:09:01.041Z,6.73
2018-08-24T07:11:30.984Z,6.60
2018-08-24T07:14:01.026Z,6.00
2018-08-24T07:16:31.084Z,6.00
2018-08-24T07:19:01.103Z,6.67
2018-08-24T07:21:31.182Z,6.10
2018-08-24T07:24:01.193Z,5.37
2018-08-24T07:26:31.188Z,6.40
2018-08-24T07:29:01.230Z,6.47
2018-08-24T07:31:31.236Z,7.47
2018-08-24T07:34:01.357Z,6.60
2018-08-24T07:36:31.339Z,6.30
2018-08-24T07:39:01.239Z,6.13
2018-08-24T07:41:31.266Z,6.20
2018-08-24T07:44:01.228Z,5.60
2018-08-24T07:46:31.446Z,5.23
2018-08-24T07:49:01.426Z,6.40
2018-08-24T07:51:31.556Z,6.97
2018-08-24T07:54:01.568Z,6.90
2018-08-24T07:56:31.856Z,6.53
2018-08-24T07:59:02.886Z,7.50
2018-08-24T08:01:33.076Z,6.97
2018-08-24T08:04:04.027Z,6.60
2018-08-24T08:06:34.041Z,6.85
2018-08-24T08:09:05.168Z,7.20
2018-08-24T08:11:41.217Z,6.95
2018-08-24T08:14:11.268Z,6.42
2018-08-24T08:16:41.285Z,6.47
2018-08-24T08:19:11.247Z,5.90
2018-08-24T08:21:41.282Z,5.20
2018-08-24T08:24:11.478Z,5.50
2018-08-24T08:26:41.788Z,5.35
2018-08-24T08:29:15.816Z,5.78
2018-08-24T08:31:45.731Z,5.50
2018-08-24T08:34:15.663Z,5.45
2018-08-24T08:36:45.633Z,5.35
2018-08-24T08:39:15.602Z,5.72
2018-08-24T08:41:45.599Z,5.50
2018-08-24T08:44:16.179Z,4.95
2018-08-24T08:46:46.467Z,5.45
2018-08-24T08:49:16.479Z,5.25
2018-08-24T08:51:46.593Z,5.15
2018-08-24T08:54:19.451Z,5.45
2018-08-24T08:56:51.128Z,5.75
2018-08-24T08:59:21.048Z,5.60
2018-08-24T09:01:51.104Z,6.22
2018-08-24T09:04:21.608Z,5.87
2018-08-24T09:06:51.595Z,5.57
2018-08-24T09:09:21.559Z,5.33
2018-08-24T09:11:51.638Z,5.62
2018-08-24T09:14:21.715Z,6.03
2018-08-24T09:17:15.215Z,6.13
2018-08-24T09:19:50.341Z,5.37
2018-08-24T09:22:25.421Z,5.33
2018-08-24T09:25:17.992Z,5.33
2018-08-24T09:27:48.283Z,5.47
2018-08-24T09:30:18.346Z,5.30
2018-08-24T09:32:48.453Z,4.57
2018-08-24T09:35:18.427Z,5.30
2018-08-24T09:37:53.584Z,5.50
2018-08-24T09:43:30.411Z,4.28
2018-08-24T09:46:00.541Z,5.08
2018-08-24T09:48:34.516Z,4.60
2018-08-24T09:51:09.606Z,4.70
2018-08-24T09:53:44.785Z,4.55
2018-08-24T09:56:14.813Z,3.95
2018-08-24T09:58:44.840Z,3.95
2018-08-24T10:01:19.945Z,3.70
2018-08-24T10:03:55.083Z,3.35
2018-08-24T10:06:30.173Z,3.17
2018-08-24T10:09:00.110Z,3.50
2018-08-24T10:11:30.177Z,3.30
2018-08-24T10:14:00.119Z,17.20
2018-08-24T10:19:23.394Z,6.17
2018-08-24T10:21:53.358Z,3.00
2018-08-24T10:24:23.467Z,3.40
2018-08-24T10:26:53.393Z,3.90
2018-08-24T10:29:23.660Z,2.35
2018-08-24T10:31:53.537Z,2.30
2018-08-24T10:34:23.539Z,2.62
2018-08-24T10:36:53.632Z,2.80
2018-08-24T10:39:23.605Z,2.80
2018-08-24T10:41:53.643Z,2.58
2018-08-24T10:44:23.751Z,2.60
2018-08-24T10:46:53.806Z,2.85
2018-08-24T10:49:23.955Z,2.80
2018-08-24T10:51:53.930Z,2.50
2018-08-24T10:54:23.925Z,2.95
2018-08-24T10:56:53.899Z,2.55
2018-08-24T10:59:23.827Z,2.42
2018-08-24T11:01:53.810Z,2.62
2018-08-24T11:04:23.765Z,2.80
2018-08-24T11:06:53.841Z,2.87
2018-08-24T11:09:23.812Z,2.80
2018-08-24T11:11:53.821Z,2.95
2018-08-24T11:14:23.741Z,2.77
2018-08-24T11:16:53.824Z,2.70
2018-08-24T11:19:23.719Z,3.40
2018-08-24T11:21:53.955Z,3.10
2018-08-24T11:24:23.874Z,2.85
2018-08-24T11:26:54.001Z,3.20
2018-08-24T11:29:29.441Z,3.27
2018-08-24T11:31:59.596Z,3.42
2018-08-24T11:34:29.800Z,3.45
2018-08-24T11:36:59.791Z,3.10
2018-08-24T11:39:29.882Z,3.50
2018-08-24T11:41:59.840Z,3.47
2018-08-24T11:44:29.910Z,3.27
2018-08-24T11:50:16.572Z,3.62
2018-08-24T11:52:50.640Z,3.17
2018-08-24T11:55:20.575Z,3.00
2018-08-24T11:57:50.624Z,3.10
2018-08-24T12:00:24.572Z,2.80
2018-08-24T12:02:54.622Z,3.15
2018-08-24T12:05:37.656Z,3.00
2018-08-24T12:08:07.764Z,2.73
2018-08-24T12:10:37.688Z,2.70
2018-08-24T12:13:07.683Z,2.60
2018-08-24T12:15:37.745Z,3.00
2018-08-24T12:18:07.763Z,2.60
2018-08-24T12:20:37.826Z,3.17
2018-08-24T12:23:07.874Z,2.40
2018-08-24T12:25:37.910Z,2.90
2018-08-24T12:28:08.127Z,2.70
2018-08-24T12:30:53.828Z,2.47
2018-08-24T12:33:23.799Z,2.70
2018-08-24T12:35:53.849Z,2.60
2018-08-24T12:38:23.900Z,2.40
2018-08-24T12:40:53.927Z,2.80
2018-08-24T12:43:23.968Z,2.97
2018-08-24T12:45:54.003Z,2.70
2018-08-24T12:48:24.028Z,2.90
2018-08-24T12:50:54.029Z,2.87
2018-08-24T12:53:24.141Z,3.40
2018-08-24T12:55:54.384Z,2.83
2018-08-24T12:58:24.506Z,2.93
2018-08-24T13:00:54.690Z,2.83
2018-08-24T13:03:24.886Z,2.73
2018-08-24T13:05:54.995Z,2.97
2018-08-24T13:08:25.064Z,2.87
2018-08-24T13:10:55.236Z,2.40
2018-08-24T13:13:25.264Z,2.60
2018-08-24T13:15:55.376Z,3.17
2018-08-24T13:18:25.351Z,2.83
2018-08-24T13:20:55.406Z,2.70
2018-08-24T13:23:25.344Z,2.80
2018-08-24T13:25:55.398Z,2.70
2018-08-24T13:28:25.373Z,2.80
2018-08-24T13:30:55.459Z,2.83
2018-08-24T13:33:25.438Z,2.87
2018-08-24T13:35:55.440Z,2.70
2018-08-24T13:38:25.422Z,2.63
2018-08-24T13:40:55.440Z,2.77
2018-08-24T13:43:25.444Z,2.80
2018-08-24T13:45:55.445Z,2.90
2018-08-24T13:48:25.406Z,3.00
2018-08-24T13:50:55.316Z,2.93
2018-08-24T13:53:25.464Z,3.17
2018-08-24T13:55:55.442Z,3.30
2018-08-24T13:58:25.464Z,3.30
2018-08-24T14:00:55.583Z,3.73
2018-08-24T14:03:25.520Z,3.50
2018-08-24T14:05:55.590Z,3.40
2018-08-24T14:08:25.557Z,3.07
2018-08-24T14:10:55.571Z,2.80
2018-08-24T14:13:25.593Z,2.90
2018-08-24T14:15:55.700Z,3.10
2018-08-24T14:18:25.903Z,2.77
2018-08-24T14:20:55.966Z,3.40
2018-08-24T14:23:27.853Z,2.77
2018-08-24T14:25:57.856Z,3.47
2018-08-24T14:28:27.971Z,3.33
2018-08-24T14:30:57.972Z,3.13
2018-08-24T14:33:28.085Z,3.40
2018-08-24T14:35:58.116Z,3.63
2018-08-24T14:38:28.056Z,3.40
2018-08-24T14:40:58.103Z,3.50
2018-08-24T14:43:28.283Z,3.47
2018-08-24T14:45:58.308Z,3.03
2018-08-24T14:48:28.261Z,3.23
2018-08-24T14:50:58.228Z,3.50
2018-08-24T14:53:28.105Z,3.47
2018-08-24T14:55:58.135Z,4.20
2018-08-24T14:58:28.198Z,3.03
2018-08-24T15:00:58.170Z,2.90
2018-08-24T15:03:28.162Z,3.00
2018-08-24T15:05:58.262Z,2.80
2018-08-24T15:08:28.293Z,2.77
2018-08-24T15:10:58.380Z,3.00
2018-08-24T15:16:32.030Z,2.80
2018-08-24T15:19:17.999Z,3.10
2018-08-24T15:21:48.411Z,3.37
2018-08-24T15:24:18.454Z,3.47
2018-08-24T15:26:48.478Z,3.50
2018-08-24T15:29:18.642Z,3.53
2018-08-24T15:31:48.721Z,3.40
2018-08-24T15:34:18.690Z,3.70
2018-08-24T15:36:48.775Z,3.37
2018-08-24T15:39:28.845Z,3.47
2018-08-24T15:41:58.929Z,4.00
2018-08-24T15:44:28.952Z,4.10
2018-08-24T15:46:58.930Z,4.07
2018-08-24T15:49:28.931Z,4.27
2018-08-24T15:51:58.976Z,4.23
2018-08-24T15:54:29.290Z,4.40
2018-08-24T15:56:59.265Z,4.90
2018-08-24T15:59:29.321Z,4.40
2018-08-24T16:02:11.594Z,4.90
2018-08-24T16:04:41.606Z,4.70
2018-08-24T16:07:11.599Z,5.20
2018-08-24T16:09:41.604Z,4.97
2018-08-24T16:12:31.678Z,5.17
2018-08-24T16:15:01.631Z,4.83
2018-08-24T16:20:36.990Z,4.97
2018-08-24T16:23:07.260Z,5.70
2018-08-24T16:25:37.151Z,5.37
2018-08-24T16:28:24.629Z,5.60
2018-08-24T16:30:55.795Z,5.60
2018-08-24T16:33:25.804Z,5.60
2018-08-24T16:35:55.729Z,5.70
2018-08-24T16:38:25.813Z,5.67
2018-08-24T16:41:12.149Z,5.77
2018-08-24T16:43:42.204Z,5.90
2018-08-24T16:46:12.552Z,5.77
2018-08-24T16:48:54.729Z,5.73
2018-08-24T16:51:25.128Z,6.13
2018-08-24T16:53:55.084Z,5.70
2018-08-24T16:56:25.159Z,6.50
2018-08-24T16:58:55.176Z,6.97
2018-08-24T17:01:25.141Z,6.97
2018-08-24T17:03:55.169Z,6.30
2018-08-24T17:06:28.827Z,6.77
2018-08-24T17:08:58.832Z,6.57
2018-08-24T17:11:28.746Z,6.40
2018-08-24T17:13:58.764Z,6.43
2018-08-24T17:16:28.701Z,6.80
2018-08-24T17:19:12.391Z,6.40
2018-08-24T17:21:42.379Z,6.33
2018-08-24T17:24:19.867Z,6.73
2018-08-24T17:26:49.891Z,7.13
2018-08-24T17:29:19.952Z,8.10
2018-08-24T17:32:01.641Z,6.97
2018-08-24T17:40:27.054Z,8.07
2018-08-24T17:42:56.984Z,6.83
2018-08-24T17:45:26.990Z,8.23
2018-08-24T17:47:57.084Z,8.23
2018-08-24T17:50:27.059Z,6.53
2018-08-24T17:52:57.044Z,6.13
2018-08-24T17:55:27.054Z,6.40
2018-08-24T17:57:57.099Z,5.93
2018-08-24T18:00:32.358Z,6.10
2018-08-24T18:03:02.399Z,6.27
2018-08-24T18:05:32.257Z,6.57
2018-08-24T18:08:02.220Z,6.37
2018-08-24T18:10:32.296Z,6.17
2018-08-24T18:13:02.275Z,5.90
2018-08-24T18:15:32.303Z,6.43
2018-08-24T18:18:16.806Z,6.10
2018-08-24T18:20:56.140Z,6.30
2018-08-24T18:23:26.017Z,6.37
2018-08-24T18:25:56.025Z,6.27
2018-08-24T18:28:25.987Z,6.33
2018-08-24T18:30:55.999Z,6.40
2018-08-24T18:33:33.482Z,7.77
2018-08-24T18:36:04.172Z,6.60
2018-08-24T18:38:34.026Z,6.80
2018-08-24T18:41:03.912Z,6.10
2018-08-24T18:43:33.933Z,6.67
2018-08-24T18:46:04.558Z,6.37
2018-08-24T18:48:34.623Z,7.00
2018-08-24T18:51:04.592Z,7.00
2018-08-24T18:53:34.570Z,6.63
2018-08-24T18:56:04.527Z,6.60
2018-08-24T18:58:34.505Z,6.80
2018-08-24T19:01:10.362Z,6.93
2018-08-24T19:03:40.464Z,6.63
2018-08-24T19:06:11.306Z,7.00
2018-08-24T19:08:41.408Z,6.63
2018-08-24T19:11:16.384Z,6.90
2018-08-24T19:13:46.752Z,6.30
2018-08-24T19:16:16.706Z,7.10
2018-08-24T19:18:51.998Z,6.30
2018-08-24T19:21:38.519Z,5.97
2018-08-24T19:24:08.788Z,6.40
2018-08-24T19:26:39.112Z,6.50
2018-08-24T19:29:14.415Z,6.80
2018-08-24T19:31:44.381Z,7.00
2018-08-24T19:34:16.231Z,6.67
2018-08-24T19:36:46.201Z,6.73
2018-08-24T19:39:17.030Z,6.30
2018-08-24T19:41:52.231Z,6.50
2018-08-24T19:44:22.367Z,6.47
2018-08-24T19:47:14.136Z,6.73
2018-08-24T19:49:44.085Z,7.30
2018-08-24T19:52:14.151Z,7.40
2018-08-24T19:54:44.072Z,6.47
2018-08-24T19:57:19.105Z,6.83
2018-08-24T19:59:49.113Z,6.90
2018-08-24T20:02:19.215Z,6.67
2018-08-24T20:04:49.306Z,6.87
2018-08-24T20:07:24.219Z,7.07
2018-08-24T20:09:59.197Z,6.50
2018-08-24T20:12:29.188Z,6.53
2018-08-24T20:15:04.265Z,7.20
2018-08-24T20:17:34.252Z,6.90
2018-08-24T20:20:04.323Z,6.97
2018-08-24T20:22:34.297Z,7.40
2018-08-24T20:25:04.402Z,6.47
2018-08-24T20:27:34.298Z,7.50
2018-08-24T20:30:04.423Z,6.67
2018-08-24T20:32:34.391Z,7.10
2018-08-24T20:35:04.368Z,6.97
2018-08-24T20:37:34.298Z,7.07
2018-08-24T20:40:04.347Z,6.77
2018-08-24T20:42:34.367Z,6.83
2018-08-24T20:45:04.581Z,7.07
2018-08-24T20:47:34.565Z,7.27
2018-08-24T20:50:05.394Z,6.40
2018-08-24T20:52:35.493Z,6.57
2018-08-24T20:55:05.715Z,6.93
2018-08-24T20:57:35.851Z,7.53
2018-08-24T21:00:06.237Z,7.23
2018-08-24T21:02:36.260Z,6.53
2018-08-24T21:05:06.580Z,6.70
2018-08-24T21:07:36.603Z,7.00
2018-08-24T21:10:06.642Z,6.93
2018-08-24T21:12:36.630Z,6.93
2018-08-24T21:15:06.783Z,7.47
2018-08-24T21:17:36.551Z,7.07
2018-08-24T21:20:06.564Z,6.57
2018-08-24T21:22:36.473Z,6.73
2018-08-24T21:25:06.769Z,7.23
2018-08-24T21:27:36.753Z,7.07
2018-08-24T21:30:06.996Z,6.27
2018-08-24T21:32:37.100Z,6.73
2018-08-24T21:35:07.068Z,6.67
2018-08-24T21:37:37.073Z,6.40
2018-08-24T21:40:07.134Z,6.40
2018-08-24T21:42:37.095Z,6.57
2018-08-24T21:45:07.463Z,7.00
2018-08-24T21:47:37.371Z,6.70
2018-08-24T21:50:07.438Z,7.00
2018-08-24T21:52:37.651Z,6.70
2018-08-24T21:55:07.789Z,6.50
2018-08-24T21:57:37.736Z,6.47
2018-08-24T22:00:11.278Z,6.13
2018-08-24T22:02:41.256Z,6.20
2018-08-24T22:05:11.270Z,6.13
2018-08-24T22:07:41.204Z,6.37
2018-08-24T22:10:11.144Z,5.90
2018-08-24T22:12:41.102Z,6.17
2018-08-24T22:15:11.102Z,6.03
2018-08-24T22:17:41.089Z,5.67
2018-08-24T22:20:11.131Z,6.13
2018-08-24T22:22:41.174Z,6.13
2018-08-24T22:25:11.209Z,6.03
2018-08-24T22:27:41.121Z,5.70
2018-08-24T22:30:11.061Z,5.20
2018-08-24T22:32:41.022Z,6.03
2018-08-24T22:35:11.513Z,5.67
2018-08-24T22:37:41.918Z,5.80
2018-08-24T22:40:11.870Z,5.70
2018-08-24T22:42:43.597Z,5.57
2018-08-24T22:45:14.544Z,5.30
2018-08-24T22:47:44.604Z,5.20
2018-08-24T22:50:14.522Z,5.07
2018-08-24T22:52:44.524Z,5.17
2018-08-24T22:55:14.624Z,5.63
2018-08-24T22:57:44.632Z,4.90
2018-08-24T23:00:14.618Z,4.53
2018-08-24T23:02:44.698Z,5.43
2018-08-24T23:05:14.790Z,5.00
2018-08-24T23:07:44.907Z,4.80
2018-08-24T23:10:14.996Z,5.80
2018-08-24T23:12:44.981Z,4.83
2018-08-24T23:15:14.978Z,5.00
2018-08-24T23:17:44.972Z,5.20
2018-08-24T23:20:14.898Z,4.70
2018-08-24T23:22:44.912Z,5.03
2018-08-24T23:25:14.875Z,4.70
2018-08-24T23:27:44.757Z,4.33
2018-08-24T23:30:14.825Z,4.43
2018-08-24T23:32:51.714Z,4.80
2018-08-24T23:35:21.673Z,4.90
2018-08-24T23:37:51.630Z,4.73
2018-08-24T23:40:21.504Z,4.23
2018-08-24T23:42:51.401Z,4.33
2018-08-24T23:45:21.445Z,4.57
2018-08-24T23:47:51.369Z,4.80
2018-08-24T23:50:21.337Z,4.80
2018-08-24T23:52:51.338Z,4.60
2018-08-24T23:55:21.388Z,4.63
2018-08-24T23:57:51.244Z,4.30
